sensor_id;sensor_type;location;lat;lon;timestamp;temperature;humidity
69589;SHT31;56792;50.644;17.984;2023-08-01T00:01:15;19.61;63.60
69589;SHT31;56792;50.644;17.984;2023-08-01T00:03:43;19.61;63.67
69589;SHT31;56792;50.644;17.984;2023-08-01T00:06:12;19.60;63.71
69589;SHT31;56792;50.644;17.984;2023-08-01T00:08:40;19.59;63.67
69589;SHT31;56792;50.644;17.984;2023-08-01T00:11:08;19.58;63.71
69589;SHT31;56792;50.644;17.984;2023-08-01T00:13:37;19.57;63.58
69589;SHT31;56792;50.644;17.984;2023-08-01T00:16:05;19.57;63.54
69589;SHT31;56792;50.644;17.984;2023-08-01T00:18:34;19.56;63.50
69589;SHT31;56792;50.644;17.984;2023-08-01T00:21:02;19.53;63.55
69589;SHT31;56792;50.644;17.984;2023-08-01T00:23:34;19.51;63.52
69589;SHT31;56792;50.644;17.984;2023-08-01T00:26:03;19.49;63.55
69589;SHT31;56792;50.644;17.984;2023-08-01T00:28:31;19.47;63.59
69589;SHT31;56792;50.644;17.984;2023-08-01T00:31:03;19.44;63.72
69589;SHT31;56792;50.644;17.984;2023-08-01T00:33:35;19.42;63.74
69589;SHT31;56792;50.644;17.984;2023-08-01T00:36:03;19.39;63.78
69589;SHT31;56792;50.644;17.984;2023-08-01T00:38:35;19.35;63.88
69589;SHT31;56792;50.644;17.984;2023-08-01T00:41:04;19.31;64.00
69589;SHT31;56792;50.644;17.984;2023-08-01T00:43:32;19.28;64.12
69589;SHT31;56792;50.644;17.984;2023-08-01T00:46:00;19.25;64.19
69589;SHT31;56792;50.644;17.984;2023-08-01T00:48:32;19.20;64.26
69589;SHT31;56792;50.644;17.984;2023-08-01T00:51:04;19.17;64.40
69589;SHT31;56792;50.644;17.984;2023-08-01T00:53:34;19.13;64.50
69589;SHT31;56792;50.644;17.984;2023-08-01T00:56:04;19.10;64.61
69589;SHT31;56792;50.644;17.984;2023-08-01T00:58:32;19.07;64.56
69589;SHT31;56792;50.644;17.984;2023-08-01T01:01:01;19.03;64.50
69589;SHT31;56792;50.644;17.984;2023-08-01T01:03:29;19.02;64.66
69589;SHT31;56792;50.644;17.984;2023-08-01T01:06:01;18.99;64.72
69589;SHT31;56792;50.644;17.984;2023-08-01T01:08:48;18.95;64.57
69589;SHT31;56792;50.644;17.984;2023-08-01T01:11:17;18.92;64.45
69589;SHT31;56792;50.644;17.984;2023-08-01T01:13:45;18.91;64.44
69589;SHT31;56792;50.644;17.984;2023-08-01T01:16:14;18.89;64.66
69589;SHT31;56792;50.644;17.984;2023-08-01T01:18:42;18.86;64.89
69589;SHT31;56792;50.644;17.984;2023-08-01T01:24:42;18.83;64.84
69589;SHT31;56792;50.644;17.984;2023-08-01T01:27:13;18.81;64.75
69589;SHT31;56792;50.644;17.984;2023-08-01T01:29:43;18.79;64.61
69589;SHT31;56792;50.644;17.984;2023-08-01T01:32:13;18.79;64.54
69589;SHT31;56792;50.644;17.984;2023-08-01T01:34:44;18.79;64.53
69589;SHT31;56792;50.644;17.984;2023-08-01T01:37:13;18.78;64.64
69589;SHT31;56792;50.644;17.984;2023-08-01T01:39:41;18.76;64.58
69589;SHT31;56792;50.644;17.984;2023-08-01T01:42:10;18.74;64.55
69589;SHT31;56792;50.644;17.984;2023-08-01T01:44:39;18.71;64.67
69589;SHT31;56792;50.644;17.984;2023-08-01T01:47:07;18.69;64.64
69589;SHT31;56792;50.644;17.984;2023-08-01T01:49:36;18.66;64.63
69589;SHT31;56792;50.644;17.984;2023-08-01T01:52:05;18.64;64.67
69589;SHT31;56792;50.644;17.984;2023-08-01T01:54:34;18.62;64.68
69589;SHT31;56792;50.644;17.984;2023-08-01T01:57:02;18.60;64.73
69589;SHT31;56792;50.644;17.984;2023-08-01T01:59:32;18.58;64.71
69589;SHT31;56792;50.644;17.984;2023-08-01T02:02:00;18.57;64.70
69589;SHT31;56792;50.644;17.984;2023-08-01T02:04:29;18.55;64.67
69589;SHT31;56792;50.644;17.984;2023-08-01T02:06:58;18.52;64.54
69589;SHT31;56792;50.644;17.984;2023-08-01T02:09:26;18.50;64.50
69589;SHT31;56792;50.644;17.984;2023-08-01T02:11:55;18.49;64.49
69589;SHT31;56792;50.644;17.984;2023-08-01T02:14:24;18.47;64.49
69589;SHT31;56792;50.644;17.984;2023-08-01T02:16:53;18.46;64.48
69589;SHT31;56792;50.644;17.984;2023-08-01T02:19:21;18.46;64.59
69589;SHT31;56792;50.644;17.984;2023-08-01T02:21:50;18.43;64.51
69589;SHT31;56792;50.644;17.984;2023-08-01T02:24:18;18.43;64.49
69589;SHT31;56792;50.644;17.984;2023-08-01T02:26:47;18.44;64.41
69589;SHT31;56792;50.644;17.984;2023-08-01T02:29:16;18.43;64.39
69589;SHT31;56792;50.644;17.984;2023-08-01T02:31:44;18.44;64.33
69589;SHT31;56792;50.644;17.984;2023-08-01T02:34:13;18.44;64.46
69589;SHT31;56792;50.644;17.984;2023-08-01T02:36:41;18.44;64.45
69589;SHT31;56792;50.644;17.984;2023-08-01T02:39:10;18.43;64.42
69589;SHT31;56792;50.644;17.984;2023-08-01T02:41:38;18.44;64.18
69589;SHT31;56792;50.644;17.984;2023-08-01T02:44:06;18.43;63.99
69589;SHT31;56792;50.644;17.984;2023-08-01T02:46:35;18.42;63.89
69589;SHT31;56792;50.644;17.984;2023-08-01T02:49:03;18.42;63.78
69589;SHT31;56792;50.644;17.984;2023-08-01T02:51:32;18.41;63.72
69589;SHT31;56792;50.644;17.984;2023-08-01T02:54:00;18.39;63.74
69589;SHT31;56792;50.644;17.984;2023-08-01T02:56:28;18.39;63.77
69589;SHT31;56792;50.644;17.984;2023-08-01T02:58:57;18.39;63.71
69589;SHT31;56792;50.644;17.984;2023-08-01T03:01:25;18.39;63.60
69589;SHT31;56792;50.644;17.984;2023-08-01T03:03:53;18.38;63.62
69589;SHT31;56792;50.644;17.984;2023-08-01T03:06:22;18.37;63.73
69589;SHT31;56792;50.644;17.984;2023-08-01T03:08:50;18.36;63.81
69589;SHT31;56792;50.644;17.984;2023-08-01T03:11:18;18.35;63.92
69589;SHT31;56792;50.644;17.984;2023-08-01T03:13:47;18.35;63.93
69589;SHT31;56792;50.644;17.984;2023-08-01T03:16:16;18.33;63.97
69589;SHT31;56792;50.644;17.984;2023-08-01T03:18:44;18.31;64.09
69589;SHT31;56792;50.644;17.984;2023-08-01T03:21:13;18.30;64.16
69589;SHT31;56792;50.644;17.984;2023-08-01T03:23:42;18.27;64.38
69589;SHT31;56792;50.644;17.984;2023-08-01T03:26:10;18.24;64.43
69589;SHT31;56792;50.644;17.984;2023-08-01T03:28:39;18.23;64.41
69589;SHT31;56792;50.644;17.984;2023-08-01T03:31:07;18.22;64.42
69589;SHT31;56792;50.644;17.984;2023-08-01T03:33:35;18.22;64.46
69589;SHT31;56792;50.644;17.984;2023-08-01T03:36:04;18.24;64.56
69589;SHT31;56792;50.644;17.984;2023-08-01T03:38:32;18.25;64.63
69589;SHT31;56792;50.644;17.984;2023-08-01T03:41:01;18.28;64.82
69589;SHT31;56792;50.644;17.984;2023-08-01T03:43:30;18.30;64.68
69589;SHT31;56792;50.644;17.984;2023-08-01T03:45:59;18.34;64.60
69589;SHT31;56792;50.644;17.984;2023-08-01T03:48:27;18.38;64.58
69589;SHT31;56792;50.644;17.984;2023-08-01T03:50:56;18.40;64.58
69589;SHT31;56792;50.644;17.984;2023-08-01T03:53:26;18.43;64.59
69589;SHT31;56792;50.644;17.984;2023-08-01T03:55:55;18.46;64.62
69589;SHT31;56792;50.644;17.984;2023-08-01T03:58:24;18.48;64.57
69589;SHT31;56792;50.644;17.984;2023-08-01T04:00:52;18.51;64.63
69589;SHT31;56792;50.644;17.984;2023-08-01T04:03:21;18.52;64.69
69589;SHT31;56792;50.644;17.984;2023-08-01T04:05:49;18.56;64.57
69589;SHT31;56792;50.644;17.984;2023-08-01T04:08:17;18.56;64.63
69589;SHT31;56792;50.644;17.984;2023-08-01T04:10:46;18.58;64.59
69589;SHT31;56792;50.644;17.984;2023-08-01T04:13:15;18.59;64.80
69589;SHT31;56792;50.644;17.984;2023-08-01T04:15:44;18.62;64.85
69589;SHT31;56792;50.644;17.984;2023-08-01T04:18:12;18.63;64.82
69589;SHT31;56792;50.644;17.984;2023-08-01T04:20:40;18.64;64.82
69589;SHT31;56792;50.644;17.984;2023-08-01T04:23:09;18.65;64.79
69589;SHT31;56792;50.644;17.984;2023-08-01T04:25:37;18.66;64.73
69589;SHT31;56792;50.644;17.984;2023-08-01T04:28:08;18.68;64.85
69589;SHT31;56792;50.644;17.984;2023-08-01T04:30:36;18.70;65.01
69589;SHT31;56792;50.644;17.984;2023-08-01T04:33:05;18.69;65.17
69589;SHT31;56792;50.644;17.984;2023-08-01T04:35:33;18.70;65.32
69589;SHT31;56792;50.644;17.984;2023-08-01T04:38:01;18.73;65.17
69589;SHT31;56792;50.644;17.984;2023-08-01T04:40:30;18.75;65.12
69589;SHT31;56792;50.644;17.984;2023-08-01T04:42:58;18.76;65.01
69589;SHT31;56792;50.644;17.984;2023-08-01T04:45:27;18.78;65.00
69589;SHT31;56792;50.644;17.984;2023-08-01T04:47:55;18.80;65.04
69589;SHT31;56792;50.644;17.984;2023-08-01T04:50:24;18.82;65.25
69589;SHT31;56792;50.644;17.984;2023-08-01T04:52:52;18.83;65.57
69589;SHT31;56792;50.644;17.984;2023-08-01T04:55:21;18.83;66.36
69589;SHT31;56792;50.644;17.984;2023-08-01T04:57:50;18.85;67.01
69589;SHT31;56792;50.644;17.984;2023-08-01T05:00:18;18.85;67.55
69589;SHT31;56792;50.644;17.984;2023-08-01T05:02:47;18.83;68.00
69589;SHT31;56792;50.644;17.984;2023-08-01T05:05:15;18.82;68.53
69589;SHT31;56792;50.644;17.984;2023-08-01T05:07:44;18.80;68.98
69589;SHT31;56792;50.644;17.984;2023-08-01T05:10:12;18.77;69.11
69589;SHT31;56792;50.644;17.984;2023-08-01T05:12:41;18.79;69.33
69589;SHT31;56792;50.644;17.984;2023-08-01T05:15:09;18.79;69.54
69589;SHT31;56792;50.644;17.984;2023-08-01T05:17:38;18.77;69.73
69589;SHT31;56792;50.644;17.984;2023-08-01T05:20:08;18.78;70.04
69589;SHT31;56792;50.644;17.984;2023-08-01T05:22:37;18.83;70.38
69589;SHT31;56792;50.644;17.984;2023-08-01T05:25:06;18.88;70.37
69589;SHT31;56792;50.644;17.984;2023-08-01T05:27:35;18.95;70.39
69589;SHT31;56792;50.644;17.984;2023-08-01T05:30:04;19.04;70.04
69589;SHT31;56792;50.644;17.984;2023-08-01T05:32:35;19.10;69.68
69589;SHT31;56792;50.644;17.984;2023-08-01T05:35:04;19.14;69.53
69589;SHT31;56792;50.644;17.984;2023-08-01T05:37:34;19.15;69.55
69589;SHT31;56792;50.644;17.984;2023-08-01T05:40:03;19.18;69.62
69589;SHT31;56792;50.644;17.984;2023-08-01T05:42:33;19.21;70.22
69589;SHT31;56792;50.644;17.984;2023-08-01T05:45:02;19.19;69.87
69589;SHT31;56792;50.644;17.984;2023-08-01T05:47:32;19.17;70.00
69589;SHT31;56792;50.644;17.984;2023-08-01T05:50:01;19.19;70.20
69589;SHT31;56792;50.644;17.984;2023-08-01T05:52:30;19.23;70.44
69589;SHT31;56792;50.644;17.984;2023-08-01T05:54:59;19.29;70.35
69589;SHT31;56792;50.644;17.984;2023-08-01T05:57:27;19.31;70.48
69589;SHT31;56792;50.644;17.984;2023-08-01T05:59:56;19.31;70.52
69589;SHT31;56792;50.644;17.984;2023-08-01T06:02:24;19.32;70.51
69589;SHT31;56792;50.644;17.984;2023-08-01T06:04:53;19.34;70.73
69589;SHT31;56792;50.644;17.984;2023-08-01T06:07:21;19.36;71.07
69589;SHT31;56792;50.644;17.984;2023-08-01T06:09:50;19.38;71.12
69589;SHT31;56792;50.644;17.984;2023-08-01T06:12:18;19.41;71.19
69589;SHT31;56792;50.644;17.984;2023-08-01T06:14:47;19.43;71.43
69589;SHT31;56792;50.644;17.984;2023-08-01T06:17:15;19.44;71.53
69589;SHT31;56792;50.644;17.984;2023-08-01T06:19:44;19.47;71.59
69589;SHT31;56792;50.644;17.984;2023-08-01T06:22:12;19.50;71.47
69589;SHT31;56792;50.644;17.984;2023-08-01T06:24:40;19.54;71.64
69589;SHT31;56792;50.644;17.984;2023-08-01T06:27:09;19.56;71.65
69589;SHT31;56792;50.644;17.984;2023-08-01T06:29:37;19.56;71.67
69589;SHT31;56792;50.644;17.984;2023-08-01T06:32:06;19.57;71.70
69589;SHT31;56792;50.644;17.984;2023-08-01T06:34:35;19.55;71.79
69589;SHT31;56792;50.644;17.984;2023-08-01T06:37:03;19.51;72.14
69589;SHT31;56792;50.644;17.984;2023-08-01T06:39:32;19.47;72.30
69589;SHT31;56792;50.644;17.984;2023-08-01T06:42:00;19.46;72.47
69589;SHT31;56792;50.644;17.984;2023-08-01T06:44:29;19.45;72.65
69589;SHT31;56792;50.644;17.984;2023-08-01T06:46:57;19.43;72.73
69589;SHT31;56792;50.644;17.984;2023-08-01T06:49:26;19.43;72.91
69589;SHT31;56792;50.644;17.984;2023-08-01T06:51:54;19.44;73.06
69589;SHT31;56792;50.644;17.984;2023-08-01T06:54:22;19.39;73.39
69589;SHT31;56792;50.644;17.984;2023-08-01T06:56:51;19.36;73.52
69589;SHT31;56792;50.644;17.984;2023-08-01T06:59:19;19.38;73.49
69589;SHT31;56792;50.644;17.984;2023-08-01T07:01:47;19.40;73.83
69589;SHT31;56792;50.644;17.984;2023-08-01T07:04:16;19.41;74.22
69589;SHT31;56792;50.644;17.984;2023-08-01T07:06:44;19.43;74.41
69589;SHT31;56792;50.644;17.984;2023-08-01T07:09:13;19.37;74.81
69589;SHT31;56792;50.644;17.984;2023-08-01T07:11:41;19.30;75.16
69589;SHT31;56792;50.644;17.984;2023-08-01T07:14:10;19.27;75.55
69589;SHT31;56792;50.644;17.984;2023-08-01T07:16:38;19.25;75.81
69589;SHT31;56792;50.644;17.984;2023-08-01T07:19:06;19.32;75.91
69589;SHT31;56792;50.644;17.984;2023-08-01T07:21:35;19.33;76.27
69589;SHT31;56792;50.644;17.984;2023-08-01T07:24:03;19.31;76.51
69589;SHT31;56792;50.644;17.984;2023-08-01T07:26:32;19.32;76.41
69589;SHT31;56792;50.644;17.984;2023-08-01T07:29:00;19.33;76.54
69589;SHT31;56792;50.644;17.984;2023-08-01T07:31:29;19.35;76.45
69589;SHT31;56792;50.644;17.984;2023-08-01T07:33:57;19.37;76.71
69589;SHT31;56792;50.644;17.984;2023-08-01T07:36:26;19.32;76.97
69589;SHT31;56792;50.644;17.984;2023-08-01T07:38:55;19.23;77.14
69589;SHT31;56792;50.644;17.984;2023-08-01T07:41:24;19.15;77.39
69589;SHT31;56792;50.644;17.984;2023-08-01T07:43:52;19.09;77.49
69589;SHT31;56792;50.644;17.984;2023-08-01T07:46:20;19.05;77.69
69589;SHT31;56792;50.644;17.984;2023-08-01T07:48:49;19.02;77.73
69589;SHT31;56792;50.644;17.984;2023-08-01T07:51:19;19.01;77.95
69589;SHT31;56792;50.644;17.984;2023-08-01T07:53:47;19.00;78.02
69589;SHT31;56792;50.644;17.984;2023-08-01T07:56:17;18.98;78.23
69589;SHT31;56792;50.644;17.984;2023-08-01T07:58:46;19.01;78.07
69589;SHT31;56792;50.644;17.984;2023-08-01T08:01:15;19.06;77.95
69589;SHT31;56792;50.644;17.984;2023-08-01T08:03:44;19.09;77.87
69589;SHT31;56792;50.644;17.984;2023-08-01T08:06:12;19.09;77.64
69589;SHT31;56792;50.644;17.984;2023-08-01T08:08:40;19.11;77.66
69589;SHT31;56792;50.644;17.984;2023-08-01T08:11:09;19.16;77.62
69589;SHT31;56792;50.644;17.984;2023-08-01T08:13:37;19.21;77.74
69589;SHT31;56792;50.644;17.984;2023-08-01T08:16:06;19.23;77.83
69589;SHT31;56792;50.644;17.984;2023-08-01T08:18:34;19.24;77.98
69589;SHT31;56792;50.644;17.984;2023-08-01T08:21:03;19.26;77.94
69589;SHT31;56792;50.644;17.984;2023-08-01T08:23:31;19.30;77.90
69589;SHT31;56792;50.644;17.984;2023-08-01T08:25:59;19.30;78.08
69589;SHT31;56792;50.644;17.984;2023-08-01T08:28:28;19.30;78.09
69589;SHT31;56792;50.644;17.984;2023-08-01T08:30:58;19.33;78.15
69589;SHT31;56792;50.644;17.984;2023-08-01T08:33:28;19.38;77.89
69589;SHT31;56792;50.644;17.984;2023-08-01T08:35:56;19.44;77.72
69589;SHT31;56792;50.644;17.984;2023-08-01T08:38:25;19.54;77.85
69589;SHT31;56792;50.644;17.984;2023-08-01T08:40:58;19.56;77.70
69589;SHT31;56792;50.644;17.984;2023-08-01T08:43:34;19.56;77.83
69589;SHT31;56792;50.644;17.984;2023-08-01T08:46:04;19.53;77.92
69589;SHT31;56792;50.644;17.984;2023-08-01T08:48:34;19.57;77.83
69589;SHT31;56792;50.644;17.984;2023-08-01T08:51:06;19.60;77.62
69589;SHT31;56792;50.644;17.984;2023-08-01T08:53:35;19.60;77.44
69589;SHT31;56792;50.644;17.984;2023-08-01T08:56:07;19.61;77.57
69589;SHT31;56792;50.644;17.984;2023-08-01T08:58:37;19.65;77.54
69589;SHT31;56792;50.644;17.984;2023-08-01T09:01:06;19.69;77.35
69589;SHT31;56792;50.644;17.984;2023-08-01T09:03:35;19.72;77.08
69589;SHT31;56792;50.644;17.984;2023-08-01T09:06:06;19.71;76.77
69589;SHT31;56792;50.644;17.984;2023-08-01T09:08:41;19.69;76.84
69589;SHT31;56792;50.644;17.984;2023-08-01T09:11:17;19.68;77.06
69589;SHT31;56792;50.644;17.984;2023-08-01T09:13:45;19.71;77.06
69589;SHT31;56792;50.644;17.984;2023-08-01T09:16:16;19.72;76.93
69589;SHT31;56792;50.644;17.984;2023-08-01T09:18:49;19.74;77.05
69589;SHT31;56792;50.644;17.984;2023-08-01T09:21:19;19.73;77.18
69589;SHT31;56792;50.644;17.984;2023-08-01T09:23:48;19.72;77.29
69589;SHT31;56792;50.644;17.984;2023-08-01T09:26:18;19.71;77.40
69589;SHT31;56792;50.644;17.984;2023-08-01T09:28:55;19.71;77.41
69589;SHT31;56792;50.644;17.984;2023-08-01T09:31:26;19.70;77.73
69589;SHT31;56792;50.644;17.984;2023-08-01T09:33:56;19.68;77.89
69589;SHT31;56792;50.644;17.984;2023-08-01T09:36:24;19.68;77.95
69589;SHT31;56792;50.644;17.984;2023-08-01T09:38:57;19.68;78.04
69589;SHT31;56792;50.644;17.984;2023-08-01T09:41:27;19.71;77.90
69589;SHT31;56792;50.644;17.984;2023-08-01T09:43:57;19.75;77.68
69589;SHT31;56792;50.644;17.984;2023-08-01T09:46:25;19.78;77.56
69589;SHT31;56792;50.644;17.984;2023-08-01T09:48:54;19.83;77.51
69589;SHT31;56792;50.644;17.984;2023-08-01T09:51:32;19.90;77.49
69589;SHT31;56792;50.644;17.984;2023-08-01T09:54:00;19.97;77.38
69589;SHT31;56792;50.644;17.984;2023-08-01T09:56:29;20.04;77.26
69589;SHT31;56792;50.644;17.984;2023-08-01T09:58:57;20.08;77.05
69589;SHT31;56792;50.644;17.984;2023-08-01T10:01:28;20.14;77.10
69589;SHT31;56792;50.644;17.984;2023-08-01T10:03:59;20.16;77.03
69589;SHT31;56792;50.644;17.984;2023-08-01T10:06:30;20.15;77.07
69589;SHT31;56792;50.644;17.984;2023-08-01T10:09:03;20.15;77.15
69589;SHT31;56792;50.644;17.984;2023-08-01T10:11:33;20.15;76.79
69589;SHT31;56792;50.644;17.984;2023-08-01T10:14:05;20.12;76.41
69589;SHT31;56792;50.644;17.984;2023-08-01T10:16:34;20.10;76.57
69589;SHT31;56792;50.644;17.984;2023-08-01T10:19:05;20.08;76.65
69589;SHT31;56792;50.644;17.984;2023-08-01T10:21:35;20.14;76.88
69589;SHT31;56792;50.644;17.984;2023-08-01T10:24:05;20.19;76.87
69589;SHT31;56792;50.644;17.984;2023-08-01T10:26:34;20.26;76.89
69589;SHT31;56792;50.644;17.984;2023-08-01T10:29:03;20.30;77.03
69589;SHT31;56792;50.644;17.984;2023-08-01T10:31:32;20.33;76.90
69589;SHT31;56792;50.644;17.984;2023-08-01T10:34:12;20.35;76.94
69589;SHT31;56792;50.644;17.984;2023-08-01T10:36:41;20.35;77.15
69589;SHT31;56792;50.644;17.984;2023-08-01T10:39:23;20.38;77.60
69589;SHT31;56792;50.644;17.984;2023-08-01T10:41:57;20.43;77.38
69589;SHT31;56792;50.644;17.984;2023-08-01T10:44:31;20.53;77.17
69589;SHT31;56792;50.644;17.984;2023-08-01T10:47:01;20.58;77.11
69589;SHT31;56792;50.644;17.984;2023-08-01T10:49:34;20.61;77.15
69589;SHT31;56792;50.644;17.984;2023-08-01T10:52:16;20.58;77.17
69589;SHT31;56792;50.644;17.984;2023-08-01T10:54:45;20.58;76.98
69589;SHT31;56792;50.644;17.984;2023-08-01T10:57:21;20.58;76.71
69589;SHT31;56792;50.644;17.984;2023-08-01T10:59:50;20.60;77.05
69589;SHT31;56792;50.644;17.984;2023-08-01T11:02:20;20.64;76.82
69589;SHT31;56792;50.644;17.984;2023-08-01T11:04:59;20.66;77.02
69589;SHT31;56792;50.644;17.984;2023-08-01T11:07:29;20.71;76.77
69589;SHT31;56792;50.644;17.984;2023-08-01T11:10:02;20.70;76.47
69589;SHT31;56792;50.644;17.984;2023-08-01T11:12:34;20.68;76.64
69589;SHT31;56792;50.644;17.984;2023-08-01T11:15:06;20.69;76.71
69589;SHT31;56792;50.644;17.984;2023-08-01T11:17:37;20.73;76.75
69589;SHT31;56792;50.644;17.984;2023-08-01T11:20:08;20.72;77.05
69589;SHT31;56792;50.644;17.984;2023-08-01T11:22:49;20.70;77.12
69589;SHT31;56792;50.644;17.984;2023-08-01T11:25:31;20.68;77.31
69589;SHT31;56792;50.644;17.984;2023-08-01T11:28:06;20.64;77.25
69589;SHT31;56792;50.644;17.984;2023-08-01T11:30:36;20.59;77.26
69589;SHT31;56792;50.644;17.984;2023-08-01T11:33:15;20.58;77.39
69589;SHT31;56792;50.644;17.984;2023-08-01T11:35:46;20.60;77.59
69589;SHT31;56792;50.644;17.984;2023-08-01T11:38:20;20.53;77.46
69589;SHT31;56792;50.644;17.984;2023-08-01T11:40:49;20.52;77.38
69589;SHT31;56792;50.644;17.984;2023-08-01T11:43:19;20.57;77.35
69589;SHT31;56792;50.644;17.984;2023-08-01T11:45:50;20.55;76.98
69589;SHT31;56792;50.644;17.984;2023-08-01T11:48:21;20.47;76.78
69589;SHT31;56792;50.644;17.984;2023-08-01T11:50:55;20.38;77.12
69589;SHT31;56792;50.644;17.984;2023-08-01T11:53:25;20.24;76.94
69589;SHT31;56792;50.644;17.984;2023-08-01T11:55:54;20.13;77.22
69589;SHT31;56792;50.644;17.984;2023-08-01T11:58:29;20.06;77.38
69589;SHT31;56792;50.644;17.984;2023-08-01T12:01:02;20.01;77.41
69589;SHT31;56792;50.644;17.984;2023-08-01T12:03:32;19.99;77.35
69589;SHT31;56792;50.644;17.984;2023-08-01T12:06:11;19.98;77.21
69589;SHT31;56792;50.644;17.984;2023-08-01T12:08:40;20.00;77.41
69589;SHT31;56792;50.644;17.984;2023-08-01T12:11:17;20.01;77.27
69589;SHT31;56792;50.644;17.984;2023-08-01T12:16:29;19.99;77.54
69589;SHT31;56792;50.644;17.984;2023-08-01T12:18:57;19.94;77.76
69589;SHT31;56792;50.644;17.984;2023-08-01T12:21:26;19.94;77.99
69589;SHT31;56792;50.644;17.984;2023-08-01T12:23:54;19.97;78.05
69589;SHT31;56792;50.644;17.984;2023-08-01T12:26:23;20.01;78.06
69589;SHT31;56792;50.644;17.984;2023-08-01T12:28:51;20.02;77.98
69589;SHT31;56792;50.644;17.984;2023-08-01T12:31:20;20.03;77.83
69589;SHT31;56792;50.644;17.984;2023-08-01T12:33:49;20.06;77.89
69589;SHT31;56792;50.644;17.984;2023-08-01T12:36:19;20.06;77.96
69589;SHT31;56792;50.644;17.984;2023-08-01T12:38:48;20.06;77.90
69589;SHT31;56792;50.644;17.984;2023-08-01T12:41:16;20.11;77.77
69589;SHT31;56792;50.644;17.984;2023-08-01T12:43:45;20.19;77.56
69589;SHT31;56792;50.644;17.984;2023-08-01T12:46:13;20.25;77.22
69589;SHT31;56792;50.644;17.984;2023-08-01T12:48:41;20.35;76.85
69589;SHT31;56792;50.644;17.984;2023-08-01T12:51:10;20.45;76.51
69589;SHT31;56792;50.644;17.984;2023-08-01T12:53:40;20.55;76.32
69589;SHT31;56792;50.644;17.984;2023-08-01T12:56:09;20.62;76.06
69589;SHT31;56792;50.644;17.984;2023-08-01T12:58:37;20.63;75.77
69589;SHT31;56792;50.644;17.984;2023-08-01T13:01:05;20.61;75.59
69589;SHT31;56792;50.644;17.984;2023-08-01T13:03:34;20.62;75.40
69589;SHT31;56792;50.644;17.984;2023-08-01T13:06:03;20.63;75.20
69589;SHT31;56792;50.644;17.984;2023-08-01T13:08:31;20.62;75.30
69589;SHT31;56792;50.644;17.984;2023-08-01T13:11:00;20.63;75.34
69589;SHT31;56792;50.644;17.984;2023-08-01T13:13:35;20.61;75.24
69589;SHT31;56792;50.644;17.984;2023-08-01T13:16:04;20.60;75.00
69589;SHT31;56792;50.644;17.984;2023-08-01T13:18:32;20.56;75.07
69589;SHT31;56792;50.644;17.984;2023-08-01T13:21:01;20.57;75.31
69589;SHT31;56792;50.644;17.984;2023-08-01T13:23:29;20.58;75.62
69589;SHT31;56792;50.644;17.984;2023-08-01T13:25:58;20.58;75.74
69589;SHT31;56792;50.644;17.984;2023-08-01T13:28:28;20.60;75.71
69589;SHT31;56792;50.644;17.984;2023-08-01T13:30:56;20.65;75.49
69589;SHT31;56792;50.644;17.984;2023-08-01T13:33:24;20.70;75.36
69589;SHT31;56792;50.644;17.984;2023-08-01T13:35:53;20.80;75.19
69589;SHT31;56792;50.644;17.984;2023-08-01T13:38:23;20.86;75.01
69589;SHT31;56792;50.644;17.984;2023-08-01T13:40:52;20.89;74.91
69589;SHT31;56792;50.644;17.984;2023-08-01T13:43:20;20.85;74.81
69589;SHT31;56792;50.644;17.984;2023-08-01T13:45:48;20.87;74.70
69589;SHT31;56792;50.644;17.984;2023-08-01T13:48:18;20.90;74.30
69589;SHT31;56792;50.644;17.984;2023-08-01T13:50:47;20.98;74.16
69589;SHT31;56792;50.644;17.984;2023-08-01T13:53:15;21.02;73.80
69589;SHT31;56792;50.644;17.984;2023-08-01T13:55:43;21.06;73.52
69589;SHT31;56792;50.644;17.984;2023-08-01T13:58:12;21.10;73.21
69589;SHT31;56792;50.644;17.984;2023-08-01T14:00:40;21.11;72.89
69589;SHT31;56792;50.644;17.984;2023-08-01T14:03:08;21.15;72.46
69589;SHT31;56792;50.644;17.984;2023-08-01T14:05:37;21.25;72.23
69589;SHT31;56792;50.644;17.984;2023-08-01T14:08:05;21.43;71.60
69589;SHT31;56792;50.644;17.984;2023-08-01T14:10:33;21.62;70.69
69589;SHT31;56792;50.644;17.984;2023-08-01T14:13:02;21.78;70.40
69589;SHT31;56792;50.644;17.984;2023-08-01T14:15:30;21.80;69.33
69589;SHT31;56792;50.644;17.984;2023-08-01T14:17:58;21.81;69.70
69589;SHT31;56792;50.644;17.984;2023-08-01T14:20:27;21.87;69.82
69589;SHT31;56792;50.644;17.984;2023-08-01T14:22:55;21.90;69.09
69589;SHT31;56792;50.644;17.984;2023-08-01T14:25:23;21.89;68.90
69589;SHT31;56792;50.644;17.984;2023-08-01T14:27:52;21.91;68.93
69589;SHT31;56792;50.644;17.984;2023-08-01T14:30:20;21.89;68.64
69589;SHT31;56792;50.644;17.984;2023-08-01T14:32:49;21.87;68.66
69589;SHT31;56792;50.644;17.984;2023-08-01T14:35:17;21.86;68.93
69589;SHT31;56792;50.644;17.984;2023-08-01T14:37:45;21.87;68.80
69589;SHT31;56792;50.644;17.984;2023-08-01T14:40:14;21.86;68.77
69589;SHT31;56792;50.644;17.984;2023-08-01T14:42:43;21.81;68.53
69589;SHT31;56792;50.644;17.984;2023-08-01T14:45:11;21.75;68.58
69589;SHT31;56792;50.644;17.984;2023-08-01T14:47:40;21.72;68.44
69589;SHT31;56792;50.644;17.984;2023-08-01T14:50:10;21.68;68.45
69589;SHT31;56792;50.644;17.984;2023-08-01T14:52:39;21.62;68.51
69589;SHT31;56792;50.644;17.984;2023-08-01T14:55:08;21.57;68.39
69589;SHT31;56792;50.644;17.984;2023-08-01T14:57:37;21.52;68.29
69589;SHT31;56792;50.644;17.984;2023-08-01T15:00:06;21.48;68.39
69589;SHT31;56792;50.644;17.984;2023-08-01T15:02:36;21.42;68.41
69589;SHT31;56792;50.644;17.984;2023-08-01T15:05:05;21.37;68.77
69589;SHT31;56792;50.644;17.984;2023-08-01T15:07:35;21.32;68.82
69589;SHT31;56792;50.644;17.984;2023-08-01T15:10:03;21.27;68.80
69589;SHT31;56792;50.644;17.984;2023-08-01T15:12:33;21.22;68.63
69589;SHT31;56792;50.644;17.984;2023-08-01T15:15:01;21.20;68.43
69589;SHT31;56792;50.644;17.984;2023-08-01T15:17:32;21.17;68.37
69589;SHT31;56792;50.644;17.984;2023-08-01T15:20:00;21.17;68.55
69589;SHT31;56792;50.644;17.984;2023-08-01T15:22:29;21.14;68.39
69589;SHT31;56792;50.644;17.984;2023-08-01T15:24:58;21.14;68.49
69589;SHT31;56792;50.644;17.984;2023-08-01T15:27:26;21.12;68.43
69589;SHT31;56792;50.644;17.984;2023-08-01T15:29:54;21.12;68.49
69589;SHT31;56792;50.644;17.984;2023-08-01T15:32:23;21.11;68.53
69589;SHT31;56792;50.644;17.984;2023-08-01T15:34:51;21.13;68.70